Hopkinton, MA

1:31 PM EDT on August 22, 2014 (GMT -0400)
Saddle Hill Estates | Change Station
CLOSE
Current Station
Personal Weather Station
Location: Hopkinton, MA
Elevation: 497 ft
Nearby Weather Stations

Elev 497 ft 42.24 °N, 71.55 °W | Updated 1 second ago

Overcast
Overcast
68.2 °F
Feels Like 68.2 °F
N
0.0
Wind Variable Wind from NE
Gusts 1.6 mph

Today
High -- | Low -- °F
--% Chance of Precip.
Yesterday
High -- | Low -- °F
Precip. -- in
6:00 AM 7:36 PM
Waning Crescent, 7% visible
Pressure 30.12 in
Visibility 10.0 miles
Clouds Mostly Cloudy 800 ft
Mostly Cloudy 1300 ft
Overcast 6000 ft
Dew Point 68 °F
Humidity 99%
Rainfall 5.17 in
Snow Depth Not available.
UV 3 out of 12
Pollen 4.50 out of 12
Air Quality Not available.
Flu Activity Not available.
METAR KORH 221654Z VRB05KT 10SM BKN008 BKN013 OVC060 18/16 A3012 RMK AO2 SLP197 T01830156

More Conditions Fewer Conditions

Pressure 30.12 in
Visibility 10.0 miles
Clouds Mostly Cloudy 800 ft
Mostly Cloudy 1300 ft
Overcast 6000 ft
Dew Point 68 °F
Humidity 99%
Rainfall 5.17 in
Snow Depth Not available.
UV 3 out of 12
Pollen 4.50 out of 12
Air Quality Not available.
Flu Activity Not available.
METAR KORH 221654Z VRB05KT 10SM BKN008 BKN013 OVC060 18/16 A3012 RMK AO2 SLP197 T01830156

More Conditions Fewer Conditions

10-Day Weather Forecast

Almanac

Astronomy

Aug. 22, 2014 Rise Set
Actual Time 6:00 AM EDT 7:36 PM EDT
Civil Twilight 5:31 AM EDT 8:05 PM EDT
Nautical Twilight 4:55 AM EDT 8:41 PM EDT
Astronomical Twilight 4:17 AM EDT 9:19 PM EDT
Moon 3:19 AM EDT 5:43 PM EDT
Length of Visible Light 14h 34m
Length of Day
13h 35m
Tomorrow will be 2m 38s shorter.
Waning Crescent, 7% of the Moon is Illuminated
Today
Waning Crescent
Aug 25
New
Sep 2
First Quarter
Sep 8
Full
Sep 15
Last Quarter

Today's Extremes

State Highs State Lows

Community

WunderPhotos

Upload Photos

1,746,205 photos uploaded!

WunderBlogs® & News

Nearby

Air Quality

  Air Quality AQ Index Pollutant
Friday Good
PM2.5
Friday Good
OZONE

Snow Depth

Station Depth Elevation
No new snow has been reported.

Earthquake Activity

City Distance Mag. Time & Date
No recent earthquake activity has been reported nearby.
Minimum magnitude displayed is 2.5.

Coastal Water Temperatures

Place Temperature
Newport, RI 68.0 °F
Quonset Point, RI 72.0 °F
Conimicut Light, RI 73.9 °F

Nearby Weather Stations